createdAt,value
2024-04-09T00:01:52.647Z,21.50
2024-04-09T00:04:38.563Z,21.50
2024-04-09T00:07:24.211Z,21.50
2024-04-09T00:10:10.098Z,21.40
2024-04-09T00:12:56.279Z,21.40
2024-04-09T00:15:42.649Z,21.40
2024-04-09T00:18:32.878Z,21.40
2024-04-09T00:21:18.948Z,21.30
2024-04-09T00:24:04.816Z,21.30
2024-04-09T00:26:52.035Z,21.30
2024-04-09T00:29:38.344Z,21.30
2024-04-09T00:32:24.308Z,21.20
2024-04-09T00:35:12.438Z,21.30
2024-04-09T00:37:58.494Z,21.30
2024-04-09T00:40:44.218Z,21.30
2024-04-09T00:43:29.899Z,21.30
2024-04-09T00:46:17.364Z,21.20
2024-04-09T00:49:03.480Z,21.20
2024-04-09T00:51:53.593Z,21.20
2024-04-09T00:54:40.455Z,21.20
2024-04-09T00:57:26.997Z,21.20
2024-04-09T01:00:13.768Z,21.20
2024-04-09T01:03:00.895Z,21.20
2024-04-09T01:05:46.739Z,21.20
2024-04-09T01:08:32.694Z,21.20
2024-04-09T01:11:18.609Z,21.20
2024-04-09T01:14:05.000Z,21.10
2024-04-09T01:16:51.041Z,21.10
2024-04-09T01:19:36.790Z,21.10
2024-04-09T01:22:22.722Z,21.10
2024-04-09T01:25:11.469Z,21.10
2024-04-09T01:27:57.232Z,21.10
2024-04-09T01:30:42.922Z,21.10
2024-04-09T01:33:29.411Z,21.10
2024-04-09T01:36:15.567Z,21.00
2024-04-09T01:39:01.246Z,21.00
2024-04-09T01:41:47.796Z,21.00
2024-04-09T01:44:33.898Z,21.00
2024-04-09T01:47:19.914Z,20.90
2024-04-09T01:50:06.443Z,20.90
2024-04-09T01:52:53.056Z,20.90
2024-04-09T01:55:40.135Z,20.80
2024-04-09T01:58:26.292Z,20.80
2024-04-09T02:01:11.851Z,20.80
2024-04-09T02:03:57.930Z,20.80
2024-04-09T02:06:44.422Z,20.70
2024-04-09T02:09:30.061Z,20.70
2024-04-09T02:12:15.933Z,20.70
2024-04-09T02:15:02.034Z,20.70
2024-04-09T02:17:47.963Z,20.70
2024-04-09T02:20:33.684Z,20.70
2024-04-09T02:23:19.220Z,20.60
2024-04-09T02:26:05.333Z,20.60
2024-04-09T02:28:52.041Z,20.60
2024-04-09T02:31:37.978Z,20.60
2024-04-09T02:34:25.885Z,20.50
2024-04-09T02:37:11.878Z,20.50
2024-04-09T02:39:57.763Z,20.50
2024-04-09T02:42:45.375Z,20.50
2024-04-09T02:45:31.308Z,20.50
2024-04-09T02:48:17.877Z,20.50
2024-04-09T02:51:05.258Z,20.40
2024-04-09T02:53:51.995Z,20.40
2024-04-09T02:56:38.461Z,20.40
2024-04-09T02:59:24.515Z,20.40
2024-04-09T03:02:10.297Z,20.40
2024-04-09T03:04:56.102Z,20.40
2024-04-09T03:07:41.985Z,20.30
2024-04-09T03:10:34.138Z,20.30
2024-04-09T03:13:19.944Z,20.30
2024-04-09T03:16:22.713Z,20.30
2024-04-09T03:19:08.799Z,20.30
2024-04-09T03:21:54.630Z,20.30
2024-04-09T03:24:40.506Z,20.30
2024-04-09T03:27:26.250Z,20.30
2024-04-09T03:30:12.256Z,20.20
2024-04-09T03:33:02.202Z,20.20
2024-04-09T03:36:00.566Z,20.20
2024-04-09T03:38:46.466Z,20.20
2024-04-09T03:41:33.012Z,20.20
2024-04-09T03:44:19.144Z,20.20
2024-04-09T03:47:06.082Z,20.10
2024-04-09T03:49:52.730Z,20.10
2024-04-09T03:52:39.962Z,20.10
2024-04-09T03:55:26.071Z,20.10
2024-04-09T03:58:11.694Z,20.00
2024-04-09T04:01:08.644Z,20.00
2024-04-09T04:03:55.521Z,20.00
2024-04-09T04:06:41.770Z,19.90
2024-04-09T04:09:27.817Z,19.90
2024-04-09T04:12:13.468Z,19.90
2024-04-09T04:14:59.349Z,19.90
2024-04-09T04:17:45.175Z,19.90
2024-04-09T04:20:31.138Z,19.90
2024-04-09T04:23:16.807Z,19.90
2024-04-09T04:26:09.360Z,19.90
2024-04-09T04:28:55.924Z,19.90
2024-04-09T04:31:42.224Z,19.90
2024-04-09T04:34:28.396Z,19.90
2024-04-09T04:37:14.517Z,19.80
2024-04-09T04:40:00.403Z,19.80
2024-04-09T04:42:46.594Z,19.80
2024-04-09T04:45:32.692Z,19.80
2024-04-09T04:48:19.773Z,19.80
2024-04-09T04:51:06.081Z,19.80
2024-04-09T04:53:51.807Z,19.80
2024-04-09T04:56:37.787Z,19.90
2024-04-09T04:59:23.785Z,19.90
2024-04-09T05:02:09.597Z,19.90
2024-04-09T05:04:55.921Z,19.90
2024-04-09T05:07:42.017Z,19.90
2024-04-09T05:10:28.078Z,19.80
2024-04-09T05:13:13.848Z,19.80
2024-04-09T05:15:59.633Z,19.80
2024-04-09T05:18:47.041Z,19.80
2024-04-09T05:21:33.067Z,19.80
2024-04-09T05:24:19.059Z,19.80
2024-04-09T05:27:05.343Z,19.80
2024-04-09T05:29:51.228Z,19.80
2024-04-09T05:32:40.922Z,19.90
2024-04-09T05:35:27.753Z,19.90
2024-04-09T05:38:13.937Z,20.00
2024-04-09T05:40:59.727Z,20.00
2024-04-09T05:43:45.671Z,20.10
2024-04-09T05:46:31.508Z,20.10
2024-04-09T05:49:23.311Z,20.20
2024-04-09T05:52:09.010Z,20.20
2024-04-09T05:54:56.719Z,20.20
2024-04-09T05:57:43.345Z,20.30
2024-04-09T06:00:30.350Z,20.40
2024-04-09T06:03:16.607Z,20.40
2024-04-09T06:06:02.128Z,20.40
2024-04-09T06:08:47.769Z,20.50
2024-04-09T06:11:34.221Z,20.50
2024-04-09T06:14:20.040Z,20.50
2024-04-09T06:17:05.964Z,20.60
2024-04-09T06:19:54.860Z,20.60
2024-04-09T06:22:40.458Z,20.70
2024-04-09T06:25:26.148Z,20.70
2024-04-09T06:28:12.238Z,20.70
2024-04-09T06:30:58.547Z,20.80
2024-04-09T06:33:45.035Z,20.80
2024-04-09T06:36:31.947Z,20.90
2024-04-09T06:39:17.655Z,20.90
2024-04-09T06:42:04.741Z,21.00
2024-04-09T06:44:50.539Z,21.10
2024-04-09T06:47:36.520Z,21.10
2024-04-09T06:50:22.612Z,21.20
2024-04-09T06:53:08.368Z,21.20
2024-04-09T06:55:54.674Z,21.30
2024-04-09T06:58:42.092Z,21.40
2024-04-09T07:01:30.911Z,21.50
2024-04-09T07:04:16.746Z,21.60
2024-04-09T07:07:04.515Z,21.70
2024-04-09T07:09:51.738Z,21.70
2024-04-09T07:12:37.765Z,21.80
2024-04-09T07:15:28.159Z,21.90
2024-04-09T07:18:16.994Z,22.00
2024-04-09T07:21:03.602Z,22.10
2024-04-09T07:23:50.567Z,22.30
2024-04-09T07:26:36.687Z,22.40
2024-04-09T07:29:23.049Z,22.50
2024-04-09T07:32:08.997Z,22.60
2024-04-09T07:34:55.240Z,22.70
2024-04-09T07:37:42.743Z,22.80
2024-04-09T07:40:28.741Z,22.80
2024-04-09T07:43:14.699Z,22.90
2024-04-09T07:46:04.061Z,22.90
2024-04-09T07:48:50.166Z,22.90
2024-04-09T07:51:36.042Z,22.90
2024-04-09T07:54:22.886Z,23.00
2024-04-09T07:57:15.651Z,23.00
2024-04-09T08:00:02.014Z,23.00
2024-04-09T08:02:50.983Z,23.00
2024-04-09T08:05:37.770Z,23.00
2024-04-09T08:08:23.931Z,22.90
2024-04-09T08:11:14.869Z,22.90
2024-04-09T08:14:03.655Z,22.90
2024-04-09T08:16:49.936Z,22.90
2024-04-09T08:19:36.510Z,22.90
2024-04-09T08:22:23.466Z,22.90
2024-04-09T08:25:10.245Z,22.90
2024-04-09T08:28:03.390Z,22.90
2024-04-09T08:30:51.716Z,23.00
2024-04-09T08:33:38.905Z,23.00
2024-04-09T08:36:25.206Z,23.00
2024-04-09T08:39:11.571Z,23.00
2024-04-09T08:41:57.454Z,23.00
2024-04-09T08:44:45.171Z,23.00
2024-04-09T08:47:31.759Z,23.00
2024-04-09T08:50:18.109Z,23.00
2024-04-09T08:53:05.127Z,23.00
2024-04-09T08:55:52.986Z,23.10
2024-04-09T08:58:39.062Z,23.20
2024-04-09T09:01:30.303Z,23.30
2024-04-09T09:04:16.849Z,23.30
2024-04-09T09:07:06.600Z,23.40
2024-04-09T09:10:02.229Z,23.50
2024-04-09T09:13:03.474Z,23.70
2024-04-09T09:15:59.597Z,23.90
2024-04-09T09:18:45.706Z,24.00
2024-04-09T09:21:31.747Z,24.00
2024-04-09T09:24:20.999Z,24.00
2024-04-09T09:27:12.049Z,24.00
2024-04-09T09:29:58.696Z,24.10
2024-04-09T09:32:49.925Z,24.10
2024-04-09T09:35:36.951Z,24.10
2024-04-09T09:38:27.997Z,24.10
2024-04-09T09:41:14.879Z,24.10
2024-04-09T09:44:04.160Z,23.90
2024-04-09T09:46:50.534Z,23.80
2024-04-09T09:49:37.352Z,23.60
2024-04-09T09:52:23.407Z,23.40
2024-04-09T09:55:10.696Z,23.20
2024-04-09T09:57:58.503Z,23.00
2024-04-09T10:00:45.936Z,22.90
2024-04-09T10:03:32.568Z,22.80
2024-04-09T10:06:18.323Z,22.70
2024-04-09T10:09:07.563Z,22.60
2024-04-09T10:11:53.567Z,22.70
2024-04-09T10:14:43.023Z,22.90
2024-04-09T10:17:50.761Z,23.10
2024-04-09T10:20:39.095Z,23.00
2024-04-09T10:23:25.026Z,22.90
2024-04-09T10:26:10.652Z,22.80
2024-04-09T10:29:06.486Z,22.70
2024-04-09T10:31:53.476Z,22.60
2024-04-09T10:34:39.331Z,22.60
2024-04-09T10:37:27.884Z,22.50
2024-04-09T10:40:14.076Z,22.30
2024-04-09T10:43:02.687Z,22.20
2024-04-09T10:45:59.516Z,22.10
2024-04-09T10:48:51.428Z,22.00
2024-04-09T10:51:37.482Z,21.90
2024-04-09T10:54:25.227Z,21.90
2024-04-09T10:57:12.363Z,21.80
2024-04-09T11:00:11.062Z,21.60
2024-04-09T11:02:58.951Z,21.60
2024-04-09T11:05:45.803Z,21.50
2024-04-09T11:08:35.627Z,21.40
2024-04-09T11:11:22.650Z,21.30
2024-04-09T11:14:09.410Z,21.30
2024-04-09T11:16:55.162Z,21.20
2024-04-09T11:19:41.293Z,21.20
2024-04-09T11:22:27.009Z,21.10
2024-04-09T11:25:20.764Z,21.10
2024-04-09T11:28:08.419Z,21.00
2024-04-09T11:30:57.461Z,21.00
2024-04-09T11:33:46.193Z,20.90
2024-04-09T11:36:33.127Z,20.90
2024-04-09T11:39:24.593Z,20.80
2024-04-09T11:42:10.662Z,20.80
2024-04-09T11:45:03.049Z,20.80
2024-04-09T11:47:50.204Z,20.80
2024-04-09T11:50:36.429Z,20.80
2024-04-09T11:53:24.069Z,20.80
2024-04-09T11:56:10.393Z,20.70
2024-04-09T11:58:56.145Z,20.70
2024-04-09T12:01:41.849Z,20.70
2024-04-09T12:04:27.830Z,20.70
2024-04-09T12:07:13.743Z,20.70
2024-04-09T12:09:59.370Z,20.70
2024-04-09T12:12:45.375Z,20.70
2024-04-09T12:15:31.175Z,20.70
2024-04-09T12:18:16.966Z,20.60
2024-04-09T12:21:03.761Z,20.60
2024-04-09T12:23:49.632Z,20.60
2024-04-09T12:26:35.861Z,20.60
2024-04-09T12:29:26.160Z,20.60
2024-04-09T12:32:12.384Z,20.60
2024-04-09T12:35:00.816Z,20.60
2024-04-09T12:37:46.659Z,20.60
2024-04-09T12:40:32.339Z,20.60
2024-04-09T12:43:18.024Z,20.60
2024-04-09T12:46:04.016Z,20.60
2024-04-09T12:49:05.415Z,20.60
2024-04-09T12:51:56.571Z,20.50
2024-04-09T12:54:42.891Z,20.40
2024-04-09T12:57:29.577Z,20.40
2024-04-09T13:00:32.161Z,20.40
2024-04-09T13:03:21.850Z,20.40
2024-04-09T13:06:08.588Z,20.40
2024-04-09T13:08:54.954Z,20.50
2024-04-09T13:11:40.962Z,20.50
2024-04-09T13:14:27.304Z,20.50
2024-04-09T13:17:13.421Z,20.50
2024-04-09T13:19:59.966Z,20.50
2024-04-09T13:22:46.188Z,20.40
2024-04-09T13:25:31.860Z,20.40
2024-04-09T13:28:18.107Z,20.40
2024-04-09T13:31:05.165Z,20.30
2024-04-09T13:33:51.689Z,20.30
2024-04-09T13:36:37.411Z,20.30
2024-04-09T13:39:23.391Z,20.30
2024-04-09T13:42:09.347Z,20.30
2024-04-09T13:44:55.450Z,20.30
2024-04-09T13:47:41.464Z,20.30
2024-04-09T13:50:29.662Z,20.30
2024-04-09T13:53:16.432Z,20.30
2024-04-09T13:56:02.330Z,20.30
2024-04-09T13:58:48.927Z,20.30
2024-04-09T14:01:34.955Z,20.30
2024-04-09T14:04:20.790Z,20.30
2024-04-09T14:07:07.289Z,20.30
2024-04-09T14:09:53.452Z,20.30
2024-04-09T14:12:40.075Z,20.30
2024-04-09T14:15:26.660Z,20.20
2024-04-09T14:18:12.726Z,20.20
2024-04-09T14:21:03.490Z,20.10
2024-04-09T14:23:49.235Z,20.10
2024-04-09T14:26:35.531Z,20.10
2024-04-09T14:29:22.351Z,20.10
2024-04-09T14:32:09.977Z,20.00
2024-04-09T14:34:55.696Z,20.00
2024-04-09T14:37:41.409Z,20.00
2024-04-09T14:40:28.999Z,20.00
2024-04-09T14:43:14.831Z,19.90
2024-04-09T14:46:00.603Z,19.90
2024-04-09T14:48:52.247Z,19.90
2024-04-09T14:51:41.012Z,19.80
2024-04-09T14:54:28.357Z,19.80
2024-04-09T14:57:14.286Z,19.70
2024-04-09T15:00:00.294Z,19.70
2024-04-09T15:02:46.506Z,19.60
2024-04-09T15:05:32.973Z,19.60
2024-04-09T15:08:20.242Z,19.60
2024-04-09T15:11:06.595Z,19.50
2024-04-09T15:13:52.439Z,19.50
2024-04-09T15:16:38.198Z,19.50
2024-04-09T15:19:24.029Z,19.50
2024-04-09T15:22:09.774Z,19.50
2024-04-09T15:24:55.985Z,19.40
2024-04-09T15:27:42.936Z,19.40
2024-04-09T15:30:31.907Z,19.30
2024-04-09T15:33:25.242Z,19.30
2024-04-09T15:36:12.912Z,19.30
2024-04-09T15:38:59.845Z,19.20
2024-04-09T15:41:46.087Z,19.20
2024-04-09T15:44:32.003Z,19.20
2024-04-09T15:47:17.773Z,19.20
2024-04-09T15:50:04.208Z,19.20
2024-04-09T15:52:50.344Z,19.20
2024-04-09T15:55:36.107Z,19.10
2024-04-09T15:58:21.833Z,19.10
2024-04-09T16:01:08.220Z,19.10
2024-04-09T16:03:54.026Z,19.10
2024-04-09T16:06:42.122Z,19.10
2024-04-09T16:09:28.959Z,19.00
2024-04-09T16:12:15.280Z,19.00
2024-04-09T16:15:02.213Z,19.00
2024-04-09T16:17:48.317Z,18.90
2024-04-09T16:20:35.393Z,18.90
2024-04-09T16:23:21.279Z,18.90
2024-04-09T16:26:09.688Z,18.90
2024-04-09T16:28:55.631Z,18.90
2024-04-09T16:31:41.367Z,18.90
2024-04-09T16:34:27.213Z,18.80
2024-04-09T16:37:13.354Z,18.80
2024-04-09T16:39:59.038Z,18.80
2024-04-09T16:42:45.235Z,18.80
2024-04-09T16:45:30.849Z,18.80
2024-04-09T16:48:16.801Z,18.80
2024-04-09T16:51:03.697Z,18.80
2024-04-09T16:53:49.724Z,18.70
2024-04-09T16:56:36.671Z,18.70
2024-04-09T16:59:23.547Z,18.70
2024-04-09T17:02:09.730Z,18.70
2024-04-09T17:04:57.173Z,18.60
2024-04-09T17:07:42.698Z,18.60
2024-04-09T17:10:28.544Z,18.60
2024-04-09T17:13:15.760Z,18.50
2024-04-09T17:16:01.461Z,18.50
2024-04-09T17:18:50.934Z,18.50
2024-04-09T17:21:38.489Z,18.40
2024-04-09T17:24:24.063Z,18.40
2024-04-09T17:27:09.846Z,18.40
2024-04-09T17:29:58.139Z,18.40
2024-04-09T17:32:45.002Z,18.30
2024-04-09T17:35:33.292Z,18.30
2024-04-09T17:38:19.914Z,18.30
2024-04-09T17:41:05.900Z,18.30
2024-04-09T17:43:51.904Z,18.30
2024-04-09T17:46:37.944Z,18.30
2024-04-09T17:49:24.455Z,18.20
2024-04-09T17:52:11.101Z,18.20
2024-04-09T17:54:56.742Z,18.20
2024-04-09T17:57:43.932Z,18.20
2024-04-09T18:00:29.670Z,18.10
2024-04-09T18:03:16.359Z,18.10
2024-04-09T18:06:09.301Z,18.00
2024-04-09T18:08:55.295Z,18.00
2024-04-09T18:11:41.557Z,17.90
2024-04-09T18:14:27.532Z,17.90
2024-04-09T18:17:16.744Z,17.90
2024-04-09T18:20:04.413Z,17.90
2024-04-09T18:22:56.365Z,17.90
2024-04-09T18:25:42.453Z,17.90
2024-04-09T18:28:28.944Z,17.90
2024-04-09T18:31:14.944Z,17.80
2024-04-09T18:34:01.308Z,17.70
2024-04-09T18:36:48.846Z,17.70
2024-04-09T18:39:34.581Z,17.70
2024-04-09T18:42:20.361Z,17.60
2024-04-09T18:45:08.188Z,17.60
2024-04-09T18:47:54.341Z,17.50
2024-04-09T18:50:40.465Z,17.50
2024-04-09T18:53:26.345Z,17.40
2024-04-09T18:56:12.116Z,17.40
2024-04-09T18:58:58.530Z,17.40
2024-04-09T19:01:44.506Z,17.40
2024-04-09T19:04:30.864Z,17.40
2024-04-09T19:07:16.727Z,17.40
2024-04-09T19:10:04.055Z,17.40
2024-04-09T19:12:51.531Z,17.30
2024-04-09T19:15:37.652Z,17.30
2024-04-09T19:18:23.553Z,17.20
2024-04-09T19:21:10.758Z,17.20
2024-04-09T19:23:58.197Z,17.20
2024-04-09T19:26:43.923Z,17.20
2024-04-09T19:29:31.316Z,17.20
2024-04-09T19:32:19.495Z,17.20
2024-04-09T19:35:08.191Z,17.20
2024-04-09T19:37:53.831Z,17.10
2024-04-09T19:40:42.707Z,17.10
2024-04-09T19:43:38.368Z,17.10
2024-04-09T19:46:30.566Z,17.10
2024-04-09T19:49:16.758Z,17.00
2024-04-09T19:52:02.955Z,16.90
2024-04-09T19:54:48.592Z,16.90
2024-04-09T19:57:35.545Z,16.90
2024-04-09T20:00:21.154Z,16.80
2024-04-09T20:03:06.951Z,16.80
2024-04-09T20:05:52.849Z,16.80
2024-04-09T20:08:38.570Z,16.70
2024-04-09T20:11:26.052Z,16.70
2024-04-09T20:14:11.812Z,16.70
2024-04-09T20:16:57.743Z,16.70
2024-04-09T20:19:45.452Z,16.60
2024-04-09T20:22:31.307Z,16.60
2024-04-09T20:25:18.098Z,16.60
2024-04-09T20:28:04.012Z,16.60
2024-04-09T20:30:50.125Z,16.60
2024-04-09T20:33:37.635Z,16.50
2024-04-09T20:36:23.605Z,16.50
2024-04-09T20:39:09.480Z,16.50
2024-04-09T20:41:55.229Z,16.50
2024-04-09T20:44:40.948Z,16.40
2024-04-09T20:47:26.658Z,16.40
2024-04-09T20:50:12.910Z,16.30
2024-04-09T20:52:59.102Z,16.30
2024-04-09T20:55:44.822Z,16.20
2024-04-09T20:58:31.238Z,16.20
2024-04-09T21:01:17.497Z,16.20
2024-04-09T21:04:03.984Z,16.20
2024-04-09T21:06:50.213Z,16.10
2024-04-09T21:09:36.125Z,16.10
2024-04-09T21:12:22.794Z,16.10
2024-04-09T21:15:10.058Z,16.10
2024-04-09T21:17:56.528Z,16.10
2024-04-09T21:20:45.315Z,16.10
2024-04-09T21:23:31.147Z,16.10
2024-04-09T21:26:17.030Z,16.10
2024-04-09T21:29:02.754Z,16.10
2024-04-09T21:31:48.463Z,16.10
2024-04-09T21:34:34.040Z,16.10
2024-04-09T21:37:19.862Z,16.10
2024-04-09T21:40:09.757Z,16.10
2024-04-09T21:42:55.529Z,16.10
2024-04-09T21:45:41.289Z,16.10
2024-04-09T21:48:27.138Z,16.10
2024-04-09T21:51:13.080Z,16.10
2024-04-09T21:53:58.934Z,16.00
2024-04-09T21:56:44.936Z,16.00
2024-04-09T21:59:30.839Z,16.00
2024-04-09T22:02:16.962Z,16.10
2024-04-09T22:05:02.781Z,16.10
2024-04-09T22:07:48.607Z,16.10
2024-04-09T22:10:34.204Z,16.10
2024-04-09T22:13:20.097Z,16.10
2024-04-09T22:16:06.260Z,16.20
2024-04-09T22:18:52.386Z,16.20
2024-04-09T22:21:38.086Z,16.10
2024-04-09T22:24:23.918Z,16.20
2024-04-09T22:27:09.580Z,16.20
2024-04-09T22:29:55.414Z,16.20
2024-04-09T22:32:43.416Z,16.20
2024-04-09T22:35:29.967Z,16.20
2024-04-09T22:38:16.122Z,16.20
2024-04-09T22:41:02.093Z,16.20
2024-04-09T22:43:48.143Z,16.20
2024-04-09T22:46:33.855Z,16.20
2024-04-09T22:49:20.093Z,16.20
2024-04-09T22:52:10.117Z,16.20
2024-04-09T22:54:56.305Z,16.20
2024-04-09T22:57:42.228Z,16.20
2024-04-09T23:00:28.510Z,16.20
2024-04-09T23:03:14.640Z,16.20
2024-04-09T23:06:15.106Z,16.20
2024-04-09T23:09:02.245Z,16.20
2024-04-09T23:11:48.571Z,16.20
2024-04-09T23:14:35.096Z,16.20
2024-04-09T23:17:21.462Z,16.20
2024-04-09T23:20:08.955Z,16.20
2024-04-09T23:22:54.814Z,16.20
2024-04-09T23:25:41.136Z,16.20
2024-04-09T23:28:27.015Z,16.20
2024-04-09T23:31:12.891Z,16.10
2024-04-09T23:33:58.796Z,16.10
2024-04-09T23:36:44.350Z,16.20
2024-04-09T23:39:30.154Z,16.20
2024-04-09T23:42:15.965Z,16.20
2024-04-09T23:45:01.728Z,16.20
2024-04-09T23:47:50.782Z,16.20
2024-04-09T23:50:37.418Z,16.20
2024-04-09T23:53:23.169Z,16.20
2024-04-09T23:56:09.232Z,16.20
2024-04-09T23:58:55.130Z,16.20
